Time;durP1;ratioP1;P1;durP2;ratioP2;P2;SDS_P1;SDS_P2;PMS_P1;PMS_P2;Temp;Humidity;BMP_temperature;BMP_pressure;BME280_temperature;BME280_humidity;BME280_pressure;Samples;Min_cycle;Max_cycle;Signal;HPM_P1;HPM_P2
2022/03/19 00:00:39;;;;;;;67.80;37.33;;;5.50;99.90;;;;;;5041602;28;88993;-80
2022/03/19 00:03:05;;;;;;;69.07;39.35;;;5.50;99.90;;;;;;5039005;28;89092;-80
2022/03/19 00:05:30;;;;;;;65.93;37.28;;;5.50;99.90;;;;;;5040457;28;90231;-77
2022/03/19 00:07:56;;;;;;;71.93;37.65;;;5.50;99.90;;;;;;5040176;28;91145;-78
2022/03/19 00:10:22;;;;;;;68.28;36.92;;;5.40;99.90;;;;;;5044063;28;88869;-78
2022/03/19 00:12:49;;;;;;;69.65;36.22;;;5.40;99.90;;;;;;5043071;28;89330;-78
2022/03/19 00:15:16;;;;;;;68.18;36.65;;;5.40;99.90;;;;;;5042170;28;91568;-79
2022/03/19 00:17:42;;;;;;;67.45;37.70;;;5.40;99.90;;;;;;5042987;28;88917;-79
2022/03/19 00:20:08;;;;;;;71.40;37.47;;;5.40;99.90;;;;;;5040445;28;89032;-77
2022/03/19 00:22:34;;;;;;;69.97;36.72;;;5.40;99.90;;;;;;5041819;28;89236;-79
2022/03/19 00:25:00;;;;;;;63.97;35.45;;;5.40;99.90;;;;;;5043926;28;89426;-82
2022/03/19 00:27:26;;;;;;;78.45;40.33;;;5.30;99.90;;;;;;5040361;27;89035;-78
2022/03/19 00:29:52;;;;;;;69.45;38.03;;;5.30;99.90;;;;;;5040073;28;88948;-79
2022/03/19 05:01:35;;;;;;;104.32;45.10;;;2.40;99.90;;;;;;5483598;22;90348;-76
2022/03/19 05:04:00;;;;;;;100.30;44.67;;;2.60;99.90;;;;;;4999284;28;89044;-76
2022/03/19 05:06:26;;;;;;;95.75;44.55;;;2.60;99.90;;;;;;4999089;28;89272;-76
2022/03/19 05:11:36;;;;;;;105.63;46.40;;;2.90;99.90;;;;;;4999221;28;88953;-76
2022/03/19 05:14:04;;;;;;;100.60;44.03;;;3.10;99.90;;;;;;5001390;28;90246;-79
2022/03/19 05:16:30;;;;;;;99.40;45.08;;;3.20;99.90;;;;;;5001011;28;88838;-79
2022/03/19 05:18:55;;;;;;;99.85;44.20;;;3.20;99.90;;;;;;5000333;28;89174;-79
2022/03/19 05:21:21;;;;;;;93.80;43.17;;;3.20;99.90;;;;;;4999740;28;88904;-79
2022/03/19 05:23:47;;;;;;;91.90;43.22;;;3.20;99.90;;;;;;4999871;28;91516;-79
2022/03/19 05:26:13;;;;;;;103.30;44.83;;;3.30;99.90;;;;;;5001667;28;88949;-79
2022/03/19 05:28:39;;;;;;;85.75;41.50;;;3.30;99.90;;;;;;5001417;28;89060;-79
2022/03/19 05:31:07;;;;;;;89.78;42.78;;;3.30;99.90;;;;;;4999604;28;89106;-79
2022/03/19 05:36:17;;;;;;;83.57;41.40;;;3.50;99.90;;;;;;5001441;28;89495;-79
2022/03/19 05:38:43;;;;;;;83.78;41.72;;;3.40;99.90;;;;;;5000103;28;88940;-79
2022/03/19 05:41:08;;;;;;;86.22;42.03;;;3.40;99.90;;;;;;5001755;28;89107;-79
2022/03/19 05:43:34;;;;;;;79.18;39.80;;;3.20;99.90;;;;;;5001146;28;88786;-79
2022/03/19 05:45:59;;;;;;;87.65;41.35;;;3.10;99.90;;;;;;5000836;28;89566;-79
2022/03/19 05:48:25;;;;;;;77.53;39.22;;;3.00;99.90;;;;;;4999228;28;88983;-79
2022/03/19 05:50:51;;;;;;;83.05;40.60;;;2.90;99.90;;;;;;5000178;28;89239;-79
2022/03/19 05:53:16;;;;;;;83.88;39.25;;;3.00;99.90;;;;;;5000418;28;91756;-79
2022/03/19 05:55:42;;;;;;;87.03;39.88;;;3.10;99.90;;;;;;5000997;28;88977;-79
2022/03/19 05:58:07;;;;;;;82.30;40.58;;;3.10;99.90;;;;;;5000235;28;89360;-79
2022/03/19 06:00:33;;;;;;;88.30;40.85;;;3.20;99.90;;;;;;5001673;28;88977;-79
2022/03/19 06:02:58;;;;;;;87.90;42.78;;;3.20;99.90;;;;;;5002184;28;90324;-79
2022/03/19 06:05:24;;;;;;;81.80;39.50;;;3.30;99.90;;;;;;5008071;28;92226;-79
2022/03/19 06:07:49;;;;;;;84.43;41.88;;;3.30;99.90;;;;;;5010597;28;88842;-79
2022/03/19 06:10:15;;;;;;;80.40;39.40;;;3.40;99.90;;;;;;5002429;28;88880;-79
2022/03/19 06:12:43;;;;;;;76.18;39.20;;;3.30;99.90;;;;;;4999556;28;92866;-79
2022/03/19 06:15:09;;;;;;;75.28;38.80;;;3.30;99.90;;;;;;4999364;28;92201;-79
2022/03/19 06:17:34;;;;;;;86.25;41.22;;;3.40;99.90;;;;;;4999185;28;89105;-79
2022/03/19 06:20:00;;;;;;;92.03;41.92;;;3.40;99.90;;;;;;5000973;28;89237;-79
2022/03/19 06:22:25;;;;;;;78.82;40.17;;;3.50;99.90;;;;;;5001005;28;90035;-79
2022/03/19 06:24:51;;;;;;;75.93;39.58;;;3.60;99.90;;;;;;5001487;28;89338;-79
2022/03/19 06:27:17;;;;;;;79.10;37.30;;;3.80;99.90;;;;;;4999835;28;89043;-79
2022/03/19 06:29:42;;;;;;;74.20;37.58;;;3.80;99.90;;;;;;5001349;28;88854;-79
2022/03/19 06:32:08;;;;;;;76.75;38.28;;;3.90;99.90;;;;;;4999492;28;92839;-79
2022/03/19 06:34:33;;;;;;;68.43;35.50;;;3.90;99.90;;;;;;4999877;28;90792;-79
2022/03/19 06:39:43;;;;;;;67.32;34.80;;;4.10;99.90;;;;;;5001934;28;88929;-79
2022/03/19 06:42:09;;;;;;;64.93;34.67;;;4.10;99.90;;;;;;5001227;28;90279;-79
2022/03/19 06:44:35;;;;;;;67.55;35.08;;;4.10;99.90;;;;;;5000049;28;91333;-79
2022/03/19 06:47:00;;;;;;;63.08;33.25;;;4.10;99.90;;;;;;5001215;28;88942;-79
2022/03/19 06:49:28;;;;;;;69.07;36.05;;;4.10;99.90;;;;;;5001241;28;88901;-79
2022/03/19 06:51:54;;;;;;;67.15;34.50;;;4.10;99.90;;;;;;5000847;28;89940;-79
2022/03/19 06:54:20;;;;;;;65.38;34.60;;;4.30;99.90;;;;;;5001384;28;89810;-79
2022/03/19 06:56:45;;;;;;;64.47;31.70;;;4.40;99.90;;;;;;4999256;28;89098;-79
2022/03/19 06:59:11;;;;;;;63.35;33.10;;;4.50;99.90;;;;;;5001327;28;88855;-79
2022/03/19 07:01:36;;;;;;;58.10;30.90;;;4.50;99.90;;;;;;5003754;28;89242;-79
2022/03/19 07:04:03;;;;;;;58.72;30.05;;;4.50;99.90;;;;;;5004718;28;89240;-79
2022/03/19 07:06:29;;;;;;;60.47;30.70;;;4.60;99.90;;;;;;5004442;28;88883;-79
2022/03/19 07:08:55;;;;;;;55.65;28.42;;;4.60;99.90;;;;;;5003053;28;88373;-79
2022/03/19 07:11:20;;;;;;;57.55;28.10;;;4.70;99.90;;;;;;5003084;28;92920;-79
2022/03/19 07:13:46;;;;;;;52.15;27.63;;;4.80;99.90;;;;;;5002894;28;92081;-79
2022/03/19 07:16:12;;;;;;;54.53;27.45;;;4.90;99.90;;;;;;5004113;28;88962;-79
2022/03/19 07:18:37;;;;;;;52.97;27.58;;;5.00;99.90;;;;;;5003220;28;89209;-79
2022/03/19 07:21:03;;;;;;;48.25;26.00;;;5.10;99.90;;;;;;5002985;28;92207;-79
2022/03/19 07:23:29;;;;;;;46.33;25.88;;;5.20;99.90;;;;;;5002195;28;91887;-79
2022/03/19 07:25:59;;;;;;;44.40;25.13;;;5.30;99.90;;;;;;5004901;28;88802;-79
2022/03/19 07:28:26;;;;;;;43.25;25.23;;;5.40;99.90;;;;;;5007474;28;89215;-79
2022/03/19 07:30:51;;;;;;;50.53;26.20;;;5.50;99.90;;;;;;5009931;28;90263;-79
2022/03/19 07:33:17;;;;;;;48.38;24.67;;;5.60;99.90;;;;;;5008550;28;90624;-79
2022/03/19 07:35:43;;;;;;;45.22;23.20;;;5.60;99.90;;;;;;5009805;28;88827;-79
2022/03/19 07:38:10;;;;;;;44.60;24.52;;;5.70;99.90;;;;;;5009085;28;89049;-79
2022/03/19 07:43:22;;;;;;;46.03;23.45;;;5.90;99.90;;;;;;5010528;28;89020;-79
2022/03/19 07:45:48;;;;;;;43.22;24.85;;;6.00;99.90;;;;;;5010906;28;88945;-79
2022/03/19 07:48:14;;;;;;;42.70;23.65;;;6.10;99.90;;;;;;5015701;28;89121;-79
2022/03/19 07:50:39;;;;;;;44.08;23.58;;;6.20;99.90;;;;;;5003074;28;92409;-79
2022/03/19 07:53:06;;;;;;;42.88;23.58;;;6.30;99.90;;;;;;5003325;28;89591;-79
2022/03/19 07:55:32;;;;;;;42.05;23.92;;;6.40;99.90;;;;;;5001645;28;89018;-80
2022/03/19 07:57:58;;;;;;;42.25;24.05;;;6.50;99.90;;;;;;5001749;28;89019;-79
2022/03/19 08:00:24;;;;;;;40.20;23.40;;;6.60;99.90;;;;;;5002673;28;91317;-80
2022/03/19 08:02:51;;;;;;;49.00;25.98;;;6.70;99.90;;;;;;5001841;28;88869;-78
2022/03/19 08:05:17;;;;;;;43.92;25.13;;;6.80;99.90;;;;;;4999880;28;89365;-79
2022/03/19 08:07:42;;;;;;;44.72;24.58;;;6.90;99.90;;;;;;5000318;28;88783;-76
2022/03/19 08:10:10;;;;;;;41.08;25.67;;;6.90;99.90;;;;;;4999717;28;89586;-75
2022/03/19 08:12:36;;;;;;;46.30;25.45;;;7.10;99.90;;;;;;4998674;28;91593;-75
2022/03/19 08:15:04;;;;;;;46.03;26.80;;;7.20;99.90;;;;;;5000374;28;88881;-75
2022/03/19 08:17:30;;;;;;;43.85;26.23;;;7.30;99.90;;;;;;4997956;28;89233;-75
2022/03/19 08:19:59;;;;;;;47.45;26.35;;;7.30;99.90;;;;;;4998543;28;93127;-74
2022/03/19 08:22:28;;;;;;;45.80;27.10;;;7.40;99.90;;;;;;4999743;28;89595;-75
2022/03/19 08:24:53;;;;;;;44.20;26.35;;;7.50;99.90;;;;;;4998553;28;88909;-74
2022/03/19 08:27:20;;;;;;;48.03;28.60;;;7.60;99.90;;;;;;4989535;28;88890;-76
2022/03/19 08:29:46;;;;;;;45.80;28.23;;;7.60;99.90;;;;;;4978225;28;92925;-74
2022/03/19 08:32:12;;;;;;;47.60;28.60;;;7.70;99.90;;;;;;4979454;28;90986;-74
2022/03/19 08:34:38;;;;;;;47.15;29.38;;;7.80;99.90;;;;;;4980065;28;88933;-76
2022/03/19 08:37:04;;;;;;;54.58;29.83;;;8.00;99.90;;;;;;4979902;28;89279;-74
2022/03/19 08:42:14;;;;;;;52.65;31.75;;;8.20;99.90;;;;;;4979424;28;89110;-74
2022/03/19 08:44:40;;;;;;;51.65;31.67;;;8.30;99.90;;;;;;4979851;28;89077;-75
2022/03/19 08:47:05;;;;;;;55.60;32.97;;;8.40;99.90;;;;;;4979658;28;89078;-75
2022/03/19 08:49:31;;;;;;;56.63;32.25;;;8.50;99.90;;;;;;4977992;28;91127;-74
2022/03/19 08:51:57;;;;;;;55.20;32.65;;;8.60;99.90;;;;;;4979326;28;90621;-75
2022/03/19 08:54:22;;;;;;;55.95;32.83;;;8.70;99.90;;;;;;4979767;28;89131;-75
2022/03/19 08:56:50;;;;;;;56.50;35.25;;;8.80;99.90;;;;;;4979493;28;89133;-75
2022/03/19 08:59:16;;;;;;;52.60;33.35;;;8.90;99.90;;;;;;4979824;28;89134;-77
2022/03/19 09:01:44;;;;;;;57.60;34.20;;;9.00;99.90;;;;;;4982074;28;91303;-78
2022/03/19 09:04:10;;;;;;;55.33;32.95;;;9.00;99.90;;;;;;4998985;28;89206;-80
2022/03/19 09:06:37;;;;;;;52.10;33.47;;;9.00;99.90;;;;;;4997839;28;88933;-78
2022/03/19 09:09:03;;;;;;;53.50;34.28;;;9.20;99.90;;;;;;4999749;28;89018;-75
2022/03/19 09:11:30;;;;;;;53.95;33.88;;;9.20;99.90;;;;;;4998790;28;89151;-77
2022/03/19 09:13:57;;;;;;;52.63;33.38;;;9.40;99.90;;;;;;4999250;28;88799;-73
2022/03/19 09:16:24;;;;;;;51.95;32.67;;;9.50;99.90;;;;;;4998731;28;89593;-73
2022/03/19 09:18:50;;;;;;;53.38;32.65;;;9.50;99.90;;;;;;4991165;28;89560;-73
2022/03/19 09:21:15;;;;;;;50.35;33.92;;;9.60;99.90;;;;;;4985701;28;89748;-73
2022/03/19 09:23:42;;;;;;;52.88;32.60;;;9.70;99.90;;;;;;4980263;28;89088;-73
2022/03/19 09:26:08;;;;;;;55.47;33.65;;;9.70;99.90;;;;;;4978965;28;89042;-73
2022/03/19 09:28:34;;;;;;;54.35;34.90;;;9.60;99.90;;;;;;4983761;28;89694;-74
2022/03/19 09:30:59;;;;;;;56.28;32.67;;;9.60;99.90;;;;;;4994379;28;89258;-73
2022/03/19 09:33:25;;;;;;;54.13;32.78;;;9.70;99.90;;;;;;4977629;28;88952;-73
2022/03/19 09:35:50;;;;;;;52.45;32.83;;;9.80;99.90;;;;;;4989392;28;89134;-75
2022/03/19 09:38:17;;;;;;;48.75;31.67;;;9.80;99.90;;;;;;4984019;28;91259;-74
2022/03/19 09:40:43;;;;;;;50.17;32.20;;;9.90;99.90;;;;;;4977276;28;91038;-72
2022/03/19 09:43:09;;;;;;;54.90;32.85;;;9.90;99.90;;;;;;4992731;28;89079;-75
2022/03/19 09:45:35;;;;;;;51.63;32.03;;;10.00;99.90;;;;;;4998882;28;89052;-74
2022/03/19 09:48:01;;;;;;;52.90;32.45;;;10.10;99.90;;;;;;4998820;28;89732;-73
2022/03/19 09:50:28;;;;;;;50.72;31.80;;;10.30;99.90;;;;;;4982453;28;89410;-75
2022/03/19 09:52:56;;;;;;;51.42;31.30;;;10.40;99.90;;;;;;4980582;28;89617;-74
2022/03/19 09:55:26;;;;;;;48.20;30.35;;;10.50;99.90;;;;;;4992844;28;89251;-74
2022/03/19 09:57:55;;;;;;;45.50;30.98;;;10.80;99.40;;;;;;4996834;28;93041;-74
2022/03/19 10:00:22;;;;;;;46.92;29.85;;;10.80;98.30;;;;;;4995437;28;89343;-74
2022/03/19 10:02:57;;;;;;;45.25;28.75;;;10.80;98.90;;;;;;4980514;28;88947;-74
2022/03/19 10:10:56;;;;;;;43.38;28.52;;;11.20;98.10;;;;;;4998169;28;89491;-75
2022/03/19 10:13:24;;;;;;;37.45;23.23;;;11.30;97.60;;;;;;4997548;28;89345;-75
2022/03/19 10:15:50;;;;;;;29.55;19.35;;;11.50;96.10;;;;;;4996866;28;88851;-76
2022/03/19 10:18:17;;;;;;;28.60;18.35;;;11.60;95.00;;;;;;4996660;28;91960;-76
2022/03/19 10:20:43;;;;;;;29.05;19.55;;;11.60;94.70;;;;;;4998265;28;89621;-76
2022/03/19 10:23:08;;;;;;;28.98;17.63;;;11.70;93.70;;;;;;4998104;28;89503;-76
2022/03/19 10:25:34;;;;;;;25.33;17.10;;;11.70;93.30;;;;;;4998321;28;89205;-74
2022/03/19 10:28:08;;;;;;;25.73;17.40;;;11.70;93.00;;;;;;4996898;28;92980;-76
2022/03/19 10:30:37;;;;;;;27.25;16.63;;;11.80;93.30;;;;;;4998088;28;90072;-75
2022/03/19 10:33:03;;;;;;;22.23;14.68;;;11.90;92.60;;;;;;4982501;28;89172;-77
2022/03/19 10:35:33;;;;;;;21.13;13.15;;;11.80;91.50;;;;;;4989026;28;88872;-76
2022/03/19 10:38:22;;;;;;;21.20;12.95;;;11.50;90.90;;;;;;5002255;28;92942;-81
2022/03/19 10:40:53;;;;;;;18.88;12.50;;;11.40;91.00;;;;;;5003121;28;88929;-76
2022/03/19 10:43:22;;;;;;;18.73;11.38;;;11.40;91.70;;;;;;4997744;28;89042;-76
2022/03/19 10:45:50;;;;;;;19.50;11.85;;;11.50;90.40;;;;;;4998132;28;91181;-77
2022/03/19 10:48:23;;;;;;;18.40;11.63;;;11.80;90.70;;;;;;4996281;28;91545;-78
2022/03/19 10:50:50;;;;;;;20.48;12.07;;;12.10;90.00;;;;;;5000176;28;92352;-78
2022/03/19 10:53:17;;;;;;;19.98;11.95;;;12.40;90.00;;;;;;5000856;28;88930;-80
2022/03/19 10:55:43;;;;;;;22.60;12.38;;;12.60;88.50;;;;;;4995894;28;91587;-77
2022/03/19 10:58:09;;;;;;;21.17;12.13;;;12.70;88.70;;;;;;4997882;28;89012;-76
2022/03/19 11:00:35;;;;;;;20.20;12.57;;;12.60;88.90;;;;;;4981827;28;88995;-78
2022/03/19 11:03:11;;;;;;;18.63;11.98;;;12.60;87.40;;;;;;4980680;28;89313;-76
2022/03/19 11:05:38;;;;;;;17.63;11.15;;;12.00;87.50;;;;;;4987066;28;89159;-76
2022/03/19 11:08:07;;;;;;;17.15;9.98;;;11.70;87.80;;;;;;4991460;28;91697;-76
2022/03/19 11:10:35;;;;;;;16.33;10.05;;;11.60;88.20;;;;;;4993113;28;89412;-77
2022/03/19 11:13:03;;;;;;;19.75;11.15;;;11.50;88.40;;;;;;4981788;28;89512;-77
2022/03/19 11:15:33;;;;;;;16.60;11.07;;;11.80;89.20;;;;;;4984038;28;88900;-78
2022/03/19 11:18:03;;;;;;;17.73;12.30;;;11.90;89.20;;;;;;4997072;28;89864;-77
2022/03/19 11:20:30;;;;;;;16.55;10.20;;;12.20;88.20;;;;;;4994347;28;89356;-77
2022/03/19 11:22:58;;;;;;;19.40;11.05;;;12.50;86.40;;;;;;4998254;22;89251;-75
2022/03/19 11:25:26;;;;;;;17.10;10.68;;;12.80;85.10;;;;;;4981686;28;89441;-76
2022/03/19 11:27:59;;;;;;;16.42;9.50;;;13.50;83.90;;;;;;4980790;28;89943;-77
2022/03/19 11:30:31;;;;;;;13.15;8.23;;;13.80;84.00;;;;;;4981145;28;89073;-77
2022/03/19 11:33:35;;;;;;;14.88;8.18;;;13.40;79.90;;;;;;4980666;28;89896;-76
2022/03/19 11:36:01;;;;;;;10.85;6.80;;;12.80;80.20;;;;;;4963946;28;88931;-76
2022/03/19 11:38:28;;;;;;;12.52;6.53;;;12.40;79.50;;;;;;4981884;28;88923;-76
2022/03/19 11:40:55;;;;;;;9.85;6.00;;;12.40;79.70;;;;;;4981346;28;90701;-76
2022/03/19 11:43:24;;;;;;;12.23;6.15;;;12.50;76.30;;;;;;4982237;28;89099;-76
2022/03/19 11:45:57;;;;;;;11.45;6.88;;;12.70;77.30;;;;;;4980885;28;88860;-75
2022/03/19 11:48:38;;;;;;;11.32;6.90;;;13.00;76.30;;;;;;4964136;28;93064;-76
2022/03/19 11:51:35;;;;;;;12.43;7.13;;;13.00;76.70;;;;;;4981586;28;89736;-75
2022/03/19 11:54:02;;;;;;;11.07;7.10;;;13.40;76.40;;;;;;4962364;28;89742;-76
2022/03/19 11:56:43;;;;;;;10.45;6.95;;;13.60;76.90;;;;;;4981535;28;89190;-74
2022/03/19 11:59:24;;;;;;;14.52;7.35;;;13.40;74.90;;;;;;4981275;28;89887;-75
2022/03/19 12:01:55;;;;;;;14.38;7.97;;;12.70;75.70;;;;;;4981022;28;89056;-75
2022/03/19 12:04:22;;;;;;;13.00;7.70;;;12.40;78.00;;;;;;4962393;28;89191;-75
2022/03/19 12:06:52;;;;;;;13.65;7.60;;;12.20;77.30;;;;;;4981319;28;89206;-74
2022/03/19 12:09:19;;;;;;;11.57;7.53;;;12.40;78.90;;;;;;4981063;28;89964;-75
2022/03/19 12:12:06;;;;;;;11.80;7.65;;;13.10;77.00;;;;;;4963384;28;91941;-76
2022/03/19 12:14:33;;;;;;;11.02;6.63;;;13.80;77.10;;;;;;4981173;28;89072;-75
2022/03/19 12:17:17;;;;;;;8.25;5.53;;;14.10;71.40;;;;;;4987763;28;88783;-77
2022/03/19 12:19:54;;;;;;;10.10;6.00;;;14.50;70.10;;;;;;4983967;28;88752;-77
2022/03/19 12:22:31;;;;;;;9.38;5.93;;;14.50;69.10;;;;;;4960929;28;89667;-76
2022/03/19 12:25:08;;;;;;;11.07;6.13;;;14.10;70.20;;;;;;4961473;28;89062;-75
2022/03/19 12:27:34;;;;;;;12.30;6.10;;;13.70;70.30;;;;;;4943421;28;88977;-75
2022/03/19 12:30:00;;;;;;;11.38;5.80;;;13.60;72.10;;;;;;4961411;28;89554;-75
2022/03/19 12:32:26;;;;;;;9.50;4.95;;;13.50;72.10;;;;;;4960562;28;89266;-74
2022/03/19 12:35:02;;;;;;;8.88;5.10;;;13.40;70.30;;;;;;4977355;28;89041;-74
2022/03/19 12:37:28;;;;;;;8.23;5.43;;;13.20;68.80;;;;;;4975068;28;89045;-75
2022/03/19 12:40:03;;;;;;;10.25;5.40;;;13.10;69.90;;;;;;4959256;28;88940;-74
2022/03/19 12:42:33;;;;;;;7.88;4.57;;;13.50;70.30;;;;;;4976446;28;89357;-74
2022/03/19 12:45:01;;;;;;;5.93;3.65;;;13.90;67.40;;;;;;4974974;28;89091;-74
2022/03/19 12:47:27;;;;;;;8.70;4.28;;;14.50;65.70;;;;;;4943330;28;89142;-75
2022/03/19 12:49:54;;;;;;;8.65;4.68;;;14.50;67.70;;;;;;4942700;28;91577;-75
2022/03/19 12:52:20;;;;;;;8.45;5.43;;;14.60;66.30;;;;;;4959446;28;89185;-74
2022/03/19 12:54:47;;;;;;;9.68;5.68;;;14.10;68.30;;;;;;4959606;28;88854;-76
2022/03/19 12:57:23;;;;;;;10.68;6.00;;;13.80;69.00;;;;;;4941195;28;89261;-75
2022/03/19 13:00:00;;;;;;;7.45;5.20;;;13.50;69.60;;;;;;4942577;28;91684;-73
2022/03/19 13:02:26;;;;;;;11.07;5.63;;;13.40;69.50;;;;;;4942234;28;91616;-73
2022/03/19 13:04:52;;;;;;;37.95;5.95;;;13.60;70.00;;;;;;4947298;28;89014;-73
2022/03/19 13:07:18;;;;;;;9.20;4.88;;;13.70;68.40;;;;;;4959877;28;89376;-73
2022/03/19 13:09:44;;;;;;;8.98;4.50;;;14.20;70.40;;;;;;4971626;28;89640;-75
2022/03/19 13:12:18;;;;;;;6.45;4.40;;;14.50;65.10;;;;;;4971936;28;89075;-73
2022/03/19 13:14:51;;;;;;;11.43;6.05;;;14.60;62.80;;;;;;4976250;28;88995;-72
2022/03/19 13:17:17;;;;;;;9.10;5.03;;;14.20;65.80;;;;;;4960980;28;89462;-75
2022/03/19 13:19:43;;;;;;;9.68;5.18;;;14.30;66.30;;;;;;4979907;28;88886;-73
2022/03/19 13:22:10;;;;;;;10.10;5.22;;;14.50;64.20;;;;;;4961599;28;91722;-75
2022/03/19 13:24:37;;;;;;;7.22;4.63;;;14.90;64.90;;;;;;4979743;28;88969;-75
2022/03/19 13:27:03;;;;;;;9.55;4.68;;;15.20;63.60;;;;;;4987533;28;89229;-74
2022/03/19 13:29:37;;;;;;;9.35;5.05;;;14.40;61.60;;;;;;4990712;28;90199;-73
2022/03/19 13:32:05;;;;;;;11.32;5.05;;;13.40;63.90;;;;;;4966739;28;91313;-73
2022/03/19 13:34:37;;;;;;;9.95;5.18;;;12.50;66.10;;;;;;4962115;28;89149;-73
2022/03/19 13:37:11;;;;;;;9.68;4.72;;;12.10;69.40;;;;;;4961287;28;89162;-73
2022/03/19 13:39:38;;;;;;;6.85;4.10;;;12.30;69.90;;;;;;4979943;28;88966;-73
2022/03/19 13:42:05;;;;;;;6.05;4.10;;;12.60;67.60;;;;;;4979493;28;89062;-74
2022/03/19 13:45:01;;;;;;;6.35;3.63;;;12.60;61.90;;;;;;4960968;28;89159;-73
2022/03/19 13:47:34;;;;;;;7.65;4.18;;;12.90;62.70;;;;;;4979880;28;88904;-73
2022/03/19 13:50:01;;;;;;;9.13;3.58;;;13.10;61.60;;;;;;4979566;28;89156;-73
2022/03/19 13:52:34;;;;;;;6.53;3.78;;;13.10;59.20;;;;;;4961678;28;89614;-73
2022/03/19 13:55:05;;;;;;;7.45;3.13;;;12.80;60.20;;;;;;4979799;28;89081;-73
2022/03/19 13:57:56;;;;;;;7.32;3.42;;;12.90;58.50;;;;;;4979407;28;89186;-75
2022/03/19 14:00:27;;;;;;;6.00;3.08;;;12.90;58.70;;;;;;4948403;28;92406;-72
2022/03/19 14:03:05;;;;;;;7.38;2.70;;;13.00;59.20;;;;;;4979466;28;89646;-73
2022/03/19 14:05:32;;;;;;;4.85;2.80;;;12.90;56.60;;;;;;4980031;28;88956;-73
2022/03/19 14:08:01;;;;;;;5.90;3.20;;;12.70;57.40;;;;;;4961116;28;89041;-74
2022/03/19 14:10:46;;;;;;;5.07;3.13;;;12.90;54.70;;;;;;4979277;28;88856;-74
2022/03/19 14:13:38;;;;;;;5.43;2.95;;;12.60;53.50;;;;;;4979502;28;89076;-74
2022/03/19 14:16:12;;;;;;;4.85;2.50;;;12.50;54.80;;;;;;4979378;28;88895;-74
2022/03/19 14:18:40;;;;;;;3.03;2.15;;;12.60;54.40;;;;;;4979685;28;88903;-74
2022/03/19 14:21:08;;;;;;;3.70;2.30;;;12.70;54.30;;;;;;4979246;28;89676;-74
2022/03/19 14:23:41;;;;;;;3.67;2.40;;;12.80;54.00;;;;;;4978457;28;91111;-73
2022/03/19 14:26:12;;;;;;;2.90;2.10;;;13.30;53.20;;;;;;4979946;28;89266;-73
2022/03/19 14:28:38;;;;;;;3.17;2.00;;;13.90;50.70;;;;;;4961921;28;89089;-73
2022/03/19 14:31:04;;;;;;;3.00;2.35;;;14.50;47.30;;;;;;4979261;28;89816;-74
2022/03/19 14:33:31;;;;;;;3.78;2.30;;;14.70;46.60;;;;;;4978708;28;89143;-74
2022/03/19 14:36:04;;;;;;;5.30;2.28;;;15.70;50.10;;;;;;4979237;28;89038;-74
2022/03/19 14:38:35;;;;;;;3.38;2.38;;;16.80;45.30;;;;;;4979333;28;88887;-73
2022/03/19 14:41:07;;;;;;;3.60;2.22;;;17.00;43.90;;;;;;4978852;28;89643;-75
2022/03/19 14:43:34;;;;;;;3.55;2.20;;;17.20;43.60;;;;;;4969771;28;91122;-75
2022/03/19 14:46:01;;;;;;;4.13;2.40;;;17.30;42.60;;;;;;4987194;28;88957;-76
2022/03/19 14:48:28;;;;;;;3.30;2.13;;;16.30;42.70;;;;;;4981167;28;89793;-75
2022/03/19 14:50:55;;;;;;;3.15;2.13;;;17.50;42.10;;;;;;4953169;28;91866;-76
2022/03/19 14:53:21;;;;;;;2.65;1.80;;;16.60;42.00;;;;;;4978531;28;89458;-76
2022/03/19 14:55:50;;;;;;;2.75;1.95;;;17.40;41.00;;;;;;4960907;28;89092;-75
2022/03/19 14:58:16;;;;;;;4.07;2.10;;;17.20;40.00;;;;;;4975884;28;88497;-75
2022/03/19 15:00:42;;;;;;;4.38;2.35;;;17.60;40.50;;;;;;4978135;28;91172;-75
2022/03/19 15:03:09;;;;;;;2.88;2.22;;;18.60;39.90;;;;;;4979410;28;89014;-77
2022/03/19 15:05:35;;;;;;;4.80;2.30;;;17.60;38.60;;;;;;4979077;28;89084;-76
2022/03/19 15:08:01;;;;;;;4.30;2.28;;;17.80;39.60;;;;;;4977917;28;89105;-76
2022/03/19 15:10:30;;;;;;;4.38;2.28;;;18.50;38.50;;;;;;4961865;28;91371;-77
2022/03/19 15:12:56;;;;;;;3.30;2.55;;;18.80;38.80;;;;;;4942090;28;92418;-76
2022/03/19 15:15:21;;;;;;;4.25;2.58;;;19.50;40.10;;;;;;4960482;28;89471;-76
2022/03/19 15:17:47;;;;;;;5.55;3.78;;;18.50;40.60;;;;;;4959113;28;88970;-76
2022/03/19 15:20:13;;;;;;;6.63;4.10;;;17.70;50.50;;;;;;4956367;28;93026;-76
2022/03/19 15:22:40;;;;;;;8.77;4.15;;;17.00;52.60;;;;;;4981233;28;88934;-74
2022/03/19 15:25:10;;;;;;;5.65;3.88;;;16.70;55.50;;;;;;4964447;28;88981;-78
2022/03/19 15:27:38;;;;;;;8.20;4.88;;;15.80;56.20;;;;;;4982039;28;89351;-76
2022/03/19 15:30:07;;;;;;;7.82;4.63;;;14.40;59.40;;;;;;4981854;28;89905;-78
2022/03/19 15:32:33;;;;;;;6.35;4.13;;;12.70;63.30;;;;;;4960985;28;92469;-77
2022/03/19 15:34:59;;;;;;;7.00;4.55;;;14.00;63.80;;;;;;4982122;28;89141;-76
2022/03/19 15:37:25;;;;;;;8.15;5.25;;;15.00;60.40;;;;;;4963672;28;88990;-79
2022/03/19 15:39:52;;;;;;;8.10;4.53;;;15.30;58.20;;;;;;4964100;28;92764;-78
2022/03/19 15:42:20;;;;;;;9.18;5.45;;;15.40;58.70;;;;;;4981733;28;89657;-78
2022/03/19 15:44:46;;;;;;;8.63;4.88;;;15.80;59.20;;;;;;4952590;28;88877;-77
2022/03/19 15:47:12;;;;;;;7.63;5.25;;;15.60;58.30;;;;;;4972921;28;88782;-79
2022/03/19 15:49:38;;;;;;;7.95;5.00;;;15.40;59.10;;;;;;4977445;28;89051;-78
2022/03/19 15:52:04;;;;;;;7.30;5.22;;;15.10;59.50;;;;;;4982273;28;89413;-79
2022/03/19 15:54:30;;;;;;;7.43;5.43;;;15.60;60.80;;;;;;4977975;28;89060;-82
2022/03/19 15:56:55;;;;;;;8.32;5.53;;;15.40;60.00;;;;;;4963794;28;89597;-78
2022/03/19 15:59:25;;;;;;;9.93;5.72;;;15.20;60.50;;;;;;4958482;28;93020;-79
2022/03/19 16:01:51;;;;;;;7.75;5.65;;;15.70;59.70;;;;;;4950678;28;91920;-78
2022/03/19 16:04:17;;;;;;;8.15;6.35;;;15.20;61.30;;;;;;4949701;28;88987;-77
2022/03/19 16:06:44;;;;;;;8.02;5.75;;;15.20;63.20;;;;;;4963418;28;89474;-76
2022/03/19 16:09:11;;;;;;;9.82;6.18;;;14.80;65.00;;;;;;4975405;28;89955;-76
2022/03/19 16:11:36;;;;;;;10.13;6.70;;;14.60;65.50;;;;;;4951747;28;89487;-77
2022/03/19 16:14:02;;;;;;;8.70;5.97;;;14.40;66.80;;;;;;4964429;28;89106;-78
2022/03/19 16:16:28;;;;;;;9.63;5.75;;;14.10;67.50;;;;;;4974426;28;89275;-76
2022/03/19 16:18:53;;;;;;;7.68;5.65;;;13.60;68.80;;;;;;4978371;28;90000;-77
2022/03/19 16:21:19;;;;;;;10.32;5.32;;;13.30;69.60;;;;;;4970613;28;89244;-79
2022/03/19 16:23:44;;;;;;;7.95;5.15;;;13.10;69.00;;;;;;4962439;28;89068;-80
2022/03/19 16:26:10;;;;;;;10.50;5.30;;;12.60;69.70;;;;;;4972279;28;89191;-76
2022/03/19 16:28:36;;;;;;;6.75;4.50;;;12.20;71.40;;;;;;4961836;28;92912;-76
2022/03/19 16:31:02;;;;;;;7.70;5.05;;;11.30;73.20;;;;;;4980328;28;89259;-78
2022/03/19 16:33:28;;;;;;;8.93;4.95;;;10.40;76.20;;;;;;4976037;28;89121;-77
2022/03/19 16:35:53;;;;;;;6.70;5.20;;;9.90;79.20;;;;;;4979374;28;88897;-79
2022/03/19 16:38:19;;;;;;;8.27;5.10;;;9.40;81.40;;;;;;4960994;28;90859;-77
2022/03/19 16:40:45;;;;;;;8.07;5.20;;;9.20;82.10;;;;;;4945615;28;92088;-78
2022/03/19 16:43:12;;;;;;;6.72;4.50;;;9.00;83.30;;;;;;4980996;28;89013;-78
2022/03/19 16:45:39;;;;;;;6.75;4.68;;;8.90;83.60;;;;;;4964085;28;88958;-78
2022/03/19 16:48:05;;;;;;;8.70;5.60;;;8.70;83.80;;;;;;4963659;28;93024;-78
2022/03/19 16:50:30;;;;;;;9.98;4.80;;;8.50;84.90;;;;;;4993505;28;89188;-79
2022/03/19 16:52:56;;;;;;;8.30;5.30;;;8.50;85.10;;;;;;4986229;28;88856;-78
2022/03/19 16:55:21;;;;;;;9.20;5.57;;;8.50;86.50;;;;;;4982449;28;88890;-75
2022/03/19 16:57:48;;;;;;;11.02;5.88;;;8.40;86.60;;;;;;4981234;28;90053;-75
2022/03/19 17:00:13;;;;;;;8.77;6.10;;;8.30;87.20;;;;;;4980416;28;89218;-75
2022/03/19 17:02:39;;;;;;;9.90;5.60;;;8.20;88.00;;;;;;4976394;28;89044;-74
2022/03/19 17:05:05;;;;;;;8.90;5.13;;;8.10;89.30;;;;;;4980822;28;88968;-75
2022/03/19 17:07:32;;;;;;;6.90;4.45;;;7.90;89.50;;;;;;4969445;28;91686;-75
2022/03/19 17:09:57;;;;;;;7.50;4.47;;;7.90;89.00;;;;;;4975692;28;89741;-79
2022/03/19 17:12:23;;;;;;;7.80;4.03;;;7.70;89.70;;;;;;4975825;28;89032;-74
2022/03/19 17:14:50;;;;;;;8.68;5.00;;;7.70;90.20;;;;;;4962796;28;88851;-75
2022/03/19 17:17:16;;;;;;;7.28;4.68;;;7.60;90.80;;;;;;4977019;28;89681;-73
2022/03/19 17:19:41;;;;;;;7.35;4.75;;;7.50;90.80;;;;;;4969602;28;89011;-75
2022/03/19 17:22:07;;;;;;;9.05;5.03;;;7.50;91.40;;;;;;4968905;28;89080;-74
2022/03/19 17:24:33;;;;;;;9.88;5.22;;;7.40;91.50;;;;;;4941941;28;89288;-74
2022/03/19 17:26:59;;;;;;;11.75;6.18;;;7.30;91.90;;;;;;4963977;28;90022;-74
2022/03/19 17:29:24;;;;;;;10.65;6.43;;;7.30;92.20;;;;;;4971947;28;89382;-74
2022/03/19 17:31:50;;;;;;;12.25;7.00;;;7.20;92.50;;;;;;4967709;28;89075;-73